Bangui, Central African Republic
Current Conditions -  °F | °C
As of 6:00 PM on Friday 31 Oct 2014 (Local Time) from FEFF Reporting Station
Broken Clouds Broken Clouds  
Wind Chill: 25°   Ceiling: 15000
Heat Index: 26°   Visibility: 6mi
Dew Point: 24°   Wind: 1mph
Humidity: 94%   Direction: NA
Pressure: 29.8"   Gusts: NA
Location:  4.36°N, 18.56°E
Report Text: FEFF 311700Z VRB01KT 9999 FEW013 FEW033CB BKN150 25/24 Q1009 NOSIG
Loading
Personal Weather Stations






























Interactive Weather Map
Tropical Storm Tracking
New forecast layout! Learn more

10-Day Weather Forecast

Advertisements
Track Severe Weather on mobile